Time;durP1;ratioP1;P1;durP2;ratioP2;P2;SDS_P1;SDS_P2;PMS_P1;PMS_P2;Temp;Humidity;BMP_temperature;BMP_pressure;BME280_temperature;BME280_humidity;BME280_pressure;Samples;Min_cycle;Max_cycle;Signal;HPM_P1;HPM_P2
2022/05/02 00:00:39;;;;;;;15.13;12.93;;;10.40;99.90;;;;;;5068409;28;20197;-44
2022/05/02 00:03:05;;;;;;;14.83;13.17;;;10.40;99.90;;;;;;5056425;28;20506;-43
2022/05/02 00:05:31;;;;;;;13.57;12.03;;;10.40;99.90;;;;;;5068979;28;20445;-43
2022/05/02 00:07:56;;;;;;;14.00;12.57;;;10.60;99.90;;;;;;5068858;28;20424;-43
2022/05/02 00:10:22;;;;;;;16.10;12.17;;;10.30;99.90;;;;;;5068354;28;20224;-43
2022/05/02 00:12:47;;;;;;;14.23;12.63;;;10.40;99.90;;;;;;5068852;28;20561;-43
2022/05/02 00:15:13;;;;;;;13.80;12.23;;;10.10;99.90;;;;;;5078742;28;20699;-43
2022/05/02 00:17:57;;;;;;;14.07;12.00;;;10.20;99.90;;;;;;5063920;28;20185;-43
2022/05/02 00:20:35;;;;;;;13.90;12.50;;;10.20;99.90;;;;;;5068016;28;20435;-43
2022/05/02 00:23:04;;;;;;;13.20;11.70;;;10.10;99.90;;;;;;5057672;28;20512;-44
2022/05/02 00:25:30;;;;;;;15.20;12.10;;;10.10;99.90;;;;;;5068543;28;21031;-43
2022/05/02 00:27:57;;;;;;;13.73;12.23;;;10.20;99.90;;;;;;5068563;28;20502;-43
2022/05/02 00:30:23;;;;;;;14.17;12.17;;;9.90;99.90;;;;;;5068075;28;20856;-44
2022/05/02 00:32:49;;;;;;;15.90;12.77;;;10.00;99.90;;;;;;5063300;28;20514;-43
2022/05/02 00:35:15;;;;;;;13.00;11.80;;;9.80;99.90;;;;;;5068493;28;20498;-44
2022/05/02 00:37:42;;;;;;;15.87;14.17;;;9.80;99.90;;;;;;5068665;28;20268;-43
2022/05/02 00:40:09;;;;;;;15.13;13.63;;;9.60;99.90;;;;;;5067819;28;20843;-44
2022/05/02 00:42:35;;;;;;;14.63;12.30;;;9.60;99.90;;;;;;5068373;28;20460;-44
2022/05/02 00:45:01;;;;;;;14.80;13.30;;;9.40;99.90;;;;;;5068328;28;20468;-43
2022/05/02 00:47:27;;;;;;;15.97;12.83;;;9.60;99.90;;;;;;5057687;28;20436;-43
2022/05/02 00:49:53;;;;;;;14.10;11.83;;;9.10;99.90;;;;;;5067709;28;20185;-43
2022/05/02 00:52:19;;;;;;;13.77;12.37;;;9.10;99.90;;;;;;5068488;28;20420;-43
2022/05/02 00:54:45;;;;;;;15.93;13.40;;;9.10;99.90;;;;;;5067122;28;20199;-44
2022/05/02 00:57:13;;;;;;;15.60;13.90;;;9.10;99.90;;;;;;5071338;28;20446;-43
2022/05/02 00:59:39;;;;;;;15.87;14.03;;;9.10;99.90;;;;;;5071800;28;20909;-44
2022/05/02 01:02:07;;;;;;;14.80;13.30;;;8.90;99.90;;;;;;5064298;28;20436;-44
2022/05/02 01:04:33;;;;;;;16.00;13.50;;;9.00;99.90;;;;;;5069778;28;20514;-43
2022/05/02 01:07:08;;;;;;;17.37;14.57;;;9.00;99.90;;;;;;5071896;28;20563;-43
2022/05/02 01:09:38;;;;;;;15.17;13.60;;;8.90;99.90;;;;;;5071503;28;20559;-43
2022/05/02 01:12:05;;;;;;;16.47;14.77;;;8.90;99.90;;;;;;5071721;28;20469;-44
2022/05/02 01:14:34;;;;;;;16.43;14.80;;;8.90;99.90;;;;;;5077231;28;20819;-43
2022/05/02 01:17:02;;;;;;;16.90;14.13;;;9.10;99.90;;;;;;5081652;28;20428;-43
2022/05/02 01:19:28;;;;;;;15.03;13.40;;;8.80;99.90;;;;;;5064695;28;20431;-43
2022/05/02 01:21:53;;;;;;;15.93;14.20;;;8.80;99.90;;;;;;5070751;28;20439;-43
2022/05/02 01:24:19;;;;;;;15.80;14.17;;;8.80;99.90;;;;;;5071551;28;20216;-44
2022/05/02 01:26:45;;;;;;;15.47;13.50;;;8.90;99.90;;;;;;5071744;28;20547;-43
2022/05/02 01:29:10;;;;;;;15.00;13.50;;;8.80;99.90;;;;;;5071720;28;20801;-43
2022/05/02 01:31:36;;;;;;;15.97;14.33;;;8.80;99.90;;;;;;5069751;28;20327;-43
2022/05/02 01:34:02;;;;;;;16.43;14.70;;;8.80;99.90;;;;;;5060807;28;20708;-44
2022/05/02 01:36:28;;;;;;;19.20;15.17;;;8.70;99.90;;;;;;5071482;28;20514;-43
2022/05/02 01:38:54;;;;;;;17.10;15.03;;;8.70;99.90;;;;;;5071079;28;20193;-43
2022/05/02 01:41:20;;;;;;;18.63;14.63;;;8.50;99.90;;;;;;5070881;28;20434;-43
2022/05/02 01:43:45;;;;;;;15.70;13.97;;;8.80;99.90;;;;;;5086496;28;20694;-43
2022/05/02 01:46:12;;;;;;;17.43;14.63;;;9.00;99.90;;;;;;5071309;28;20438;-43
2022/05/02 01:48:38;;;;;;;14.60;13.13;;;8.80;99.90;;;;;;5066176;28;20242;-43
2022/05/02 01:51:04;;;;;;;18.27;14.30;;;8.70;99.90;;;;;;5070503;28;20468;-43
2022/05/02 01:53:30;;;;;;;15.60;13.90;;;8.80;99.90;;;;;;5070659;28;20443;-43
2022/05/02 01:55:56;;;;;;;16.30;14.60;;;8.80;99.90;;;;;;5071174;28;20192;-43
2022/05/02 01:58:22;;;;;;;16.10;14.40;;;8.80;99.90;;;;;;5070667;28;20856;-43
2022/05/02 02:00:48;;;;;;;16.33;13.93;;;8.80;99.90;;;;;;5070464;28;20427;-44
2022/05/02 02:03:14;;;;;;;18.57;15.93;;;8.90;99.90;;;;;;5060488;28;20464;-44
2022/05/02 02:05:48;;;;;;;20.80;14.67;;;8.90;99.90;;;;;;5086150;28;20201;-43
2022/05/02 02:08:19;;;;;;;16.47;14.50;;;8.90;99.90;;;;;;5069970;28;20216;-43
2022/05/02 02:10:46;;;;;;;18.63;14.40;;;8.90;99.90;;;;;;5070255;28;20965;-43
2022/05/02 02:13:13;;;;;;;16.40;14.70;;;9.10;99.90;;;;;;5069211;28;20973;-43
2022/05/02 02:15:39;;;;;;;16.20;14.50;;;8.90;99.90;;;;;;5085267;28;20422;-43
2022/05/02 02:18:05;;;;;;;16.40;14.30;;;8.90;99.90;;;;;;5068247;28;20530;-43
2022/05/02 02:20:31;;;;;;;15.90;14.00;;;8.80;99.90;;;;;;5068126;28;20204;-43
2022/05/02 02:22:57;;;;;;;15.90;13.73;;;8.80;99.90;;;;;;5070593;28;20463;-43
2022/05/02 02:25:23;;;;;;;16.87;13.60;;;8.90;99.90;;;;;;5070466;28;20412;-44
2022/05/02 02:27:48;;;;;;;15.67;13.47;;;8.90;99.90;;;;;;5070740;28;20522;-43
2022/05/02 02:30:14;;;;;;;19.10;14.03;;;8.90;99.90;;;;;;5069593;28;20746;-43
2022/05/02 02:32:41;;;;;;;14.30;12.50;;;9.10;99.90;;;;;;5064345;28;20189;-44
2022/05/02 02:35:07;;;;;;;15.10;13.53;;;9.10;99.90;;;;;;5065228;28;20540;-43
2022/05/02 02:37:33;;;;;;;14.50;13.00;;;9.00;99.90;;;;;;5070309;28;20430;-43
2022/05/02 02:39:59;;;;;;;14.87;13.27;;;9.10;99.90;;;;;;5069330;28;20411;-43
2022/05/02 02:42:25;;;;;;;14.77;13.30;;;9.00;99.90;;;;;;5069700;28;20455;-44
2022/05/02 02:44:51;;;;;;;14.90;13.43;;;9.10;99.90;;;;;;5069820;28;20181;-44
2022/05/02 02:47:17;;;;;;;15.63;13.27;;;9.10;99.90;;;;;;5064903;28;20457;-43
2022/05/02 02:49:43;;;;;;;14.90;13.40;;;9.20;99.90;;;;;;5064042;28;20411;-43
2022/05/02 02:52:09;;;;;;;15.40;13.43;;;9.00;99.90;;;;;;5069940;28;20499;-43
2022/05/02 02:54:35;;;;;;;15.00;13.40;;;9.10;99.90;;;;;;5069851;28;20945;-43
2022/05/02 02:57:01;;;;;;;14.70;12.90;;;9.00;99.90;;;;;;5069615;28;20638;-44
2022/05/02 02:59:26;;;;;;;14.13;12.67;;;9.00;99.90;;;;;;5068230;28;20423;-44
2022/05/02 03:01:53;;;;;;;16.40;12.97;;;8.90;99.90;;;;;;5068738;28;20225;-43
2022/05/02 03:07:05;;;;;;;15.43;12.40;;;9.10;99.90;;;;;;5069566;28;20481;-43
2022/05/02 03:09:31;;;;;;;14.33;12.83;;;8.90;99.90;;;;;;5069744;28;20423;-43
2022/05/02 03:11:58;;;;;;;14.97;13.13;;;8.80;99.90;;;;;;5068936;28;20420;-44
2022/05/02 03:14:23;;;;;;;19.47;13.43;;;8.90;99.90;;;;;;5074062;28;20435;-43
2022/05/02 03:16:49;;;;;;;14.83;13.33;;;8.90;99.90;;;;;;5089426;28;20491;-43
2022/05/02 03:19:15;;;;;;;18.30;13.43;;;8.70;99.90;;;;;;5062851;28;20185;-43
2022/05/02 03:21:41;;;;;;;15.00;12.60;;;8.70;99.90;;;;;;5068494;28;20196;-43
2022/05/02 03:24:07;;;;;;;14.67;13.20;;;8.70;99.90;;;;;;5069290;28;20573;-43
2022/05/02 03:26:32;;;;;;;14.23;12.80;;;8.70;99.90;;;;;;5069351;28;20193;-43
2022/05/02 03:28:58;;;;;;;14.27;12.77;;;8.50;99.90;;;;;;5069408;28;20259;-43
2022/05/02 03:31:24;;;;;;;14.43;12.83;;;8.40;99.90;;;;;;5068569;28;20185;-44
2022/05/02 03:33:49;;;;;;;15.13;12.70;;;8.40;99.90;;;;;;5057428;28;20236;-43
2022/05/02 03:36:16;;;;;;;15.07;13.50;;;8.50;99.90;;;;;;5065695;28;20508;-43
2022/05/02 03:38:41;;;;;;;14.87;13.20;;;8.20;99.90;;;;;;5067125;28;20213;-44
2022/05/02 03:41:07;;;;;;;14.70;12.87;;;8.30;99.90;;;;;;5068647;28;20786;-43
2022/05/02 03:43:33;;;;;;;15.63;13.77;;;8.10;99.90;;;;;;5068923;28;20212;-43
2022/05/02 03:45:59;;;;;;;14.33;12.97;;;8.40;99.90;;;;;;5069209;28;20180;-43
2022/05/02 03:48:26;;;;;;;14.90;12.77;;;8.10;99.90;;;;;;5060827;28;20193;-43
2022/05/02 03:50:53;;;;;;;14.10;12.33;;;8.10;99.90;;;;;;5062061;28;20199;-43
2022/05/02 03:53:19;;;;;;;17.67;13.80;;;8.20;99.90;;;;;;5068775;28;20968;-43
2022/05/02 03:55:45;;;;;;;15.60;13.03;;;8.20;99.90;;;;;;5069117;28;20474;-43
2022/05/02 03:58:12;;;;;;;15.20;13.60;;;8.20;99.90;;;;;;5068745;28;20439;-44
2022/05/02 04:00:37;;;;;;;14.33;12.57;;;8.30;99.90;;;;;;5068379;28;20219;-43
2022/05/02 04:03:03;;;;;;;13.90;12.20;;;8.30;99.90;;;;;;5062083;28;20504;-43
2022/05/02 04:05:29;;;;;;;14.83;13.30;;;8.50;99.90;;;;;;5062842;28;20188;-43
2022/05/02 04:07:54;;;;;;;15.93;13.33;;;8.40;99.90;;;;;;5068898;28;20204;-43
2022/05/02 04:10:20;;;;;;;13.97;12.53;;;8.40;99.90;;;;;;5068467;28;20227;-43
2022/05/02 04:12:46;;;;;;;15.70;14.10;;;8.30;99.90;;;;;;5068991;28;20280;-43
2022/05/02 04:15:12;;;;;;;15.20;13.50;;;8.40;99.90;;;;;;5080136;28;21016;-43
2022/05/02 04:17:39;;;;;;;16.47;14.70;;;8.60;99.90;;;;;;5087366;28;20430;-43
2022/05/02 04:20:06;;;;;;;17.40;15.30;;;8.70;99.90;;;;;;5062267;28;20552;-43
2022/05/02 04:22:32;;;;;;;22.30;15.60;;;8.60;99.90;;;;;;5068470;28;20549;-43
2022/05/02 04:24:58;;;;;;;16.30;14.63;;;8.50;99.90;;;;;;5067353;28;20518;-43
2022/05/02 04:27:23;;;;;;;19.70;16.37;;;8.50;99.90;;;;;;5073201;28;20195;-43
2022/05/02 04:29:49;;;;;;;16.87;15.17;;;8.60;99.90;;;;;;5088283;28;20689;-43
2022/05/02 04:32:15;;;;;;;16.23;14.53;;;8.40;99.90;;;;;;5092627;28;20180;-44
2022/05/02 04:34:40;;;;;;;16.87;15.10;;;8.40;99.90;;;;;;5063289;28;20272;-43
2022/05/02 04:37:07;;;;;;;16.43;14.70;;;8.40;99.90;;;;;;5072404;28;20770;-43
2022/05/02 04:39:33;;;;;;;16.03;14.33;;;8.40;99.90;;;;;;5071957;28;20648;-43
2022/05/02 04:41:59;;;;;;;15.70;14.20;;;8.50;99.90;;;;;;5068121;28;20428;-43
2022/05/02 04:44:25;;;;;;;17.53;14.40;;;8.50;99.90;;;;;;5067269;28;20446;-43
2022/05/02 04:46:50;;;;;;;15.50;12.87;;;8.60;99.90;;;;;;5068907;28;20271;-43
2022/05/02 04:49:16;;;;;;;14.50;13.00;;;8.50;99.90;;;;;;5063293;28;20193;-43
2022/05/02 04:51:42;;;;;;;15.67;14.07;;;8.60;99.90;;;;;;5071432;28;20193;-44
2022/05/02 04:54:08;;;;;;;15.90;14.30;;;8.60;99.90;;;;;;5071060;28;20180;-43
2022/05/02 04:56:34;;;;;;;16.00;13.60;;;8.90;99.90;;;;;;5068329;28;20442;-44
2022/05/02 04:58:59;;;;;;;16.43;14.30;;;8.80;99.90;;;;;;5071765;28;20208;-43
2022/05/02 05:01:25;;;;;;;16.80;14.50;;;8.60;99.90;;;;;;5071263;28;20286;-43
2022/05/02 05:03:51;;;;;;;14.80;13.23;;;8.60;99.90;;;;;;5063175;28;20279;-43
2022/05/02 05:06:17;;;;;;;15.83;14.00;;;8.40;99.90;;;;;;5069069;28;20181;-43
2022/05/02 05:08:43;;;;;;;14.90;13.37;;;8.50;99.90;;;;;;5072051;28;20419;-43
2022/05/02 05:11:14;;;;;;;17.20;14.90;;;8.60;99.90;;;;;;5071135;28;20416;-43
2022/05/02 05:17:15;;;;;;;15.93;13.37;;;8.70;99.90;;;;;;5071800;28;20419;-43
2022/05/02 05:20:07;;;;;;;14.67;13.17;;;8.70;99.90;;;;;;5062459;28;20765;-43
2022/05/02 05:22:44;;;;;;;16.90;14.77;;;8.60;99.90;;;;;;5070056;28;20508;-43
2022/05/02 05:25:45;;;;;;;16.10;14.30;;;8.60;99.90;;;;;;5071807;28;20422;-43
2022/05/02 05:28:39;;;;;;;14.90;13.40;;;8.80;99.90;;;;;;5028363;28;20448;-43
2022/05/02 05:31:29;;;;;;;18.33;14.20;;;9.00;99.90;;;;;;5070450;28;20773;-43
2022/05/02 05:34:07;;;;;;;16.90;15.03;;;9.10;99.90;;;;;;5052862;28;20490;-43
2022/05/02 05:36:50;;;;;;;19.50;14.53;;;9.00;99.90;;;;;;5070143;28;20786;-43
2022/05/02 05:39:35;;;;;;;16.57;14.77;;;9.10;99.90;;;;;;5068050;28;20441;-43
2022/05/02 05:42:01;;;;;;;18.50;14.57;;;9.30;99.90;;;;;;5070598;28;20423;-43
2022/05/02 05:44:40;;;;;;;17.90;15.03;;;9.10;99.90;;;;;;5071258;28;20459;-43
2022/05/02 05:47:24;;;;;;;19.67;15.43;;;9.10;99.90;;;;;;5079338;28;20188;-43
2022/05/02 05:49:58;;;;;;;19.37;15.93;;;9.20;99.90;;;;;;5071353;28;20442;-43
2022/05/02 05:52:44;;;;;;;22.63;15.47;;;9.30;99.90;;;;;;5070194;28;20482;-43
2022/05/02 05:55:39;;;;;;;17.13;15.43;;;9.40;99.90;;;;;;5067466;28;20427;-43
2022/05/02 05:58:20;;;;;;;17.93;14.80;;;9.50;99.90;;;;;;5083206;28;20455;-43
2022/05/02 06:00:50;;;;;;;17.13;15.10;;;9.50;99.90;;;;;;5066885;28;20861;-44
2022/05/02 06:03:17;;;;;;;16.13;14.43;;;9.60;99.90;;;;;;5069192;28;20873;-43
2022/05/02 06:05:45;;;;;;;16.20;14.40;;;9.70;99.90;;;;;;5070239;28;21068;-43
2022/05/02 06:08:22;;;;;;;20.57;16.40;;;9.60;99.90;;;;;;5071072;28;20451;-43
2022/05/02 06:10:55;;;;;;;16.10;14.40;;;9.90;99.90;;;;;;5074619;28;20419;-43
2022/05/02 06:13:22;;;;;;;18.90;16.27;;;10.00;99.90;;;;;;5068628;28;20427;-43
2022/05/02 06:18:38;;;;;;;17.87;15.30;;;10.30;99.90;;;;;;5066873;28;20454;-43
2022/05/02 06:21:05;;;;;;;18.27;15.07;;;10.00;99.90;;;;;;5065302;28;20429;-43
2022/05/02 06:23:42;;;;;;;16.27;13.93;;;10.20;99.90;;;;;;5070082;28;20494;-43
2022/05/02 06:26:10;;;;;;;15.63;14.00;;;10.30;99.90;;;;;;5056493;28;20411;-43
2022/05/02 06:28:43;;;;;;;19.53;15.40;;;10.40;99.90;;;;;;5070299;28;20502;-43
2022/05/02 06:31:17;;;;;;;17.90;14.73;;;10.40;99.90;;;;;;5069800;28;20534;-44
2022/05/02 06:33:48;;;;;;;19.70;15.40;;;10.60;99.90;;;;;;5066887;28;20435;-43
2022/05/02 06:36:26;;;;;;;15.23;13.57;;;10.70;99.90;;;;;;5063259;28;20801;-43
2022/05/02 06:39:05;;;;;;;15.97;14.40;;;10.70;99.90;;;;;;5083252;28;20805;-43
2022/05/02 06:41:43;;;;;;;17.17;14.33;;;10.80;99.90;;;;;;5089611;28;20428;-43
2022/05/02 06:44:47;;;;;;;16.77;14.67;;;10.90;99.90;;;;;;5070232;28;20961;-44
2022/05/02 06:47:33;;;;;;;17.70;15.40;;;10.80;99.90;;;;;;5053655;28;21035;-43
2022/05/02 06:50:03;;;;;;;17.83;15.77;;;11.00;99.90;;;;;;5059905;28;20436;-43
2022/05/02 06:52:51;;;;;;;22.20;16.30;;;11.00;99.90;;;;;;5071850;28;20840;-44
2022/05/02 06:55:40;;;;;;;19.53;17.17;;;11.10;99.90;;;;;;5079790;28;20431;-43
2022/05/02 06:58:24;;;;;;;19.27;16.70;;;11.10;99.90;;;;;;5069628;28;20443;-43
2022/05/02 07:01:06;;;;;;;17.13;15.10;;;11.10;99.90;;;;;;5075927;28;20423;-44
2022/05/02 07:03:38;;;;;;;18.43;15.00;;;11.20;99.90;;;;;;5071993;28;20462;-44
2022/05/02 07:06:09;;;;;;;17.17;15.40;;;11.20;99.90;;;;;;5067175;28;20475;-44
2022/05/02 07:09:04;;;;;;;23.53;15.97;;;11.50;99.90;;;;;;5069117;28;20945;-44
2022/05/02 07:12:24;;;;;;;19.23;15.93;;;11.60;99.90;;;;;;5064983;28;20958;-43
2022/05/02 07:15:09;;;;;;;19.30;15.40;;;11.60;99.90;;;;;;4988799;28;20464;-44
2022/05/02 07:17:43;;;;;;;16.97;15.07;;;11.70;99.90;;;;;;5062650;28;20445;-44
2022/05/02 07:20:19;;;;;;;19.40;15.50;;;11.80;99.90;;;;;;5059127;28;20833;-43
2022/05/02 07:23:18;;;;;;;18.70;15.30;;;11.80;99.90;;;;;;5077076;28;20497;-43
2022/05/02 07:25:50;;;;;;;15.83;14.40;;;11.80;99.90;;;;;;5051730;28;20426;-44
2022/05/02 07:28:44;;;;;;;16.07;14.37;;;11.90;99.90;;;;;;5069358;28;20427;-44
2022/05/02 07:31:18;;;;;;;19.70;15.13;;;12.10;99.90;;;;;;5058234;28;20918;-43
2022/05/02 07:33:46;;;;;;;16.60;14.80;;;12.10;99.90;;;;;;5069098;28;20918;-43
2022/05/02 07:36:17;;;;;;;17.20;15.53;;;12.10;99.90;;;;;;5058862;28;20956;-43
2022/05/02 07:38:53;;;;;;;20.63;15.90;;;12.20;99.90;;;;;;5067647;28;20446;-42
2022/05/02 07:41:27;;;;;;;16.90;13.97;;;12.30;99.90;;;;;;5068402;28;20770;-44
2022/05/02 07:44:06;;;;;;;20.30;15.93;;;12.40;99.90;;;;;;5069419;28;20459;-43
2022/05/02 07:46:42;;;;;;;17.00;15.40;;;12.50;99.90;;;;;;5081683;28;20434;-43
2022/05/02 07:49:10;;;;;;;15.87;14.17;;;12.50;99.90;;;;;;5085654;28;20426;-44
2022/05/02 07:51:47;;;;;;;15.20;13.80;;;12.50;99.90;;;;;;5075303;28;21852;-44
2022/05/02 07:54:36;;;;;;;19.60;14.30;;;12.60;99.90;;;;;;5068018;28;20452;-43
2022/05/02 07:57:04;;;;;;;16.40;14.80;;;12.60;99.90;;;;;;5057246;28;20481;-44
2022/05/02 07:59:36;;;;;;;17.10;13.67;;;12.70;99.90;;;;;;5067767;28;20945;-44
2022/05/02 08:02:03;;;;;;;17.90;13.17;;;12.80;99.90;;;;;;5067612;28;20423;-44
2022/05/02 08:04:29;;;;;;;14.10;12.70;;;12.90;99.90;;;;;;5065435;28;20499;-43
2022/05/02 08:07:07;;;;;;;13.13;11.73;;;13.10;99.90;;;;;;5069130;28;20420;-44
2022/05/02 08:09:51;;;;;;;14.07;12.57;;;13.20;99.90;;;;;;5075077;28;20419;-44
2022/05/02 08:12:33;;;;;;;11.97;10.60;;;13.20;99.90;;;;;;5075708;28;20509;-43
2022/05/02 08:15:06;;;;;;;16.83;12.17;;;13.20;99.90;;;;;;5085830;28;20421;-43
2022/05/02 08:18:02;;;;;;;12.07;10.80;;;13.20;99.90;;;;;;5094282;28;20631;-44
2022/05/02 08:20:44;;;;;;;12.60;11.37;;;13.30;99.90;;;;;;5074665;28;20950;-44
2022/05/02 08:29:38;;;;;;;13.80;10.97;;;13.50;99.90;;;;;;5075127;28;20794;-43
2022/05/02 08:32:14;;;;;;;10.90;9.70;;;13.60;99.90;;;;;;5075275;28;20427;-44
2022/05/02 08:34:39;;;;;;;15.60;10.97;;;13.60;99.90;;;;;;5071426;28;20962;-43
2022/05/02 08:37:08;;;;;;;11.90;10.67;;;13.70;99.90;;;;;;5065810;28;20414;-44
2022/05/02 08:39:46;;;;;;;11.50;10.13;;;13.80;99.90;;;;;;5074677;28;20181;-43
2022/05/02 08:42:54;;;;;;;13.50;11.47;;;13.80;99.90;;;;;;5060344;28;20462;-44
2022/05/02 08:45:52;;;;;;;11.50;10.20;;;14.00;99.90;;;;;;5075270;28;20430;-43
2022/05/02 08:48:45;;;;;;;12.67;11.37;;;14.10;99.90;;;;;;5075606;28;20456;-43
2022/05/02 08:51:50;;;;;;;12.90;11.60;;;14.20;99.90;;;;;;5061318;28;20493;-44
2022/05/02 08:54:37;;;;;;;13.50;12.10;;;14.20;99.90;;;;;;5068010;28;20953;-44
2022/05/02 08:57:34;;;;;;;13.40;12.00;;;14.30;99.90;;;;;;5063349;28;20911;-43
2022/05/02 09:00:09;;;;;;;13.80;11.87;;;14.40;99.90;;;;;;5071283;28;20435;-43
2022/05/02 09:03:07;;;;;;;12.70;11.40;;;14.40;99.90;;;;;;5074724;28;20489;-43
2022/05/02 09:06:03;;;;;;;15.57;12.07;;;14.60;99.90;;;;;;5063998;28;20439;-43
2022/05/02 09:08:31;;;;;;;14.10;12.50;;;14.70;99.90;;;;;;5051218;28;20419;-43
2022/05/02 09:11:31;;;;;;;13.40;12.10;;;14.80;99.90;;;;;;5073211;28;20419;-43
2022/05/02 09:14:12;;;;;;;13.33;11.97;;;14.90;99.90;;;;;;5075151;28;20423;-43
2022/05/02 09:16:54;;;;;;;18.97;13.20;;;15.10;99.90;;;;;;5092752;28;20422;-43
2022/05/02 09:19:57;;;;;;;14.17;12.50;;;15.20;99.90;;;;;;5091978;28;20422;-44
2022/05/02 09:22:44;;;;;;;14.10;12.17;;;15.30;99.90;;;;;;5063552;28;20431;-44
2022/05/02 09:25:11;;;;;;;13.43;12.23;;;15.40;99.90;;;;;;5071708;28;20527;-44
2022/05/02 09:28:01;;;;;;;17.90;12.43;;;15.60;99.90;;;;;;5056768;28;20431;-44
2022/05/02 09:30:51;;;;;;;14.10;12.00;;;15.70;99.90;;;;;;5069613;28;20944;-44
2022/05/02 09:33:39;;;;;;;16.43;12.43;;;15.90;99.90;;;;;;5071583;28;20427;-44
2022/05/02 09:36:29;;;;;;;17.70;13.53;;;16.00;99.90;;;;;;5063361;28;21518;-43
2022/05/02 09:39:19;;;;;;;14.97;13.47;;;16.20;99.90;;;;;;5068825;28;20451;-43
2022/05/02 09:41:58;;;;;;;15.00;12.97;;;16.40;99.90;;;;;;5067071;28;20418;-44
2022/05/02 09:50:40;;;;;;;14.17;12.77;;;16.70;99.90;;;;;;5064904;28;20993;-43
2022/05/02 09:53:36;;;;;;;12.67;11.43;;;16.90;99.90;;;;;;5067414;28;20431;-44
2022/05/02 09:56:39;;;;;;;15.53;12.97;;;16.90;99.90;;;;;;5067367;28;20514;-43
2022/05/02 09:59:08;;;;;;;14.03;12.63;;;17.00;99.60;;;;;;5071023;28;20447;-43
2022/05/02 10:01:34;;;;;;;13.30;11.97;;;17.10;98.90;;;;;;5070421;28;20831;-44
2022/05/02 10:04:19;;;;;;;11.70;10.47;;;17.20;99.50;;;;;;5070894;28;20455;-43
2022/05/02 10:06:50;;;;;;;13.17;11.70;;;17.20;99.10;;;;;;5061900;28;20510;-44
2022/05/02 10:09:43;;;;;;;15.40;11.53;;;17.40;99.70;;;;;;5070416;28;20530;-43
2022/05/02 10:12:27;;;;;;;11.77;10.60;;;17.40;99.30;;;;;;5070644;28;20419;-43
2022/05/02 10:15:14;;;;;;;14.03;10.83;;;17.50;98.60;;;;;;5079482;28;20425;-43
2022/05/02 10:17:55;;;;;;;11.97;10.87;;;17.60;98.30;;;;;;5090628;28;20486;-44
2022/05/02 10:20:22;;;;;;;12.33;11.00;;;17.70;97.00;;;;;;5085235;28;20517;-44
2022/05/02 10:23:20;;;;;;;12.20;10.93;;;17.70;98.60;;;;;;5064615;28;20491;-44
2022/05/02 10:26:25;;;;;;;13.10;10.93;;;17.70;98.10;;;;;;5035227;28;20522;-43
2022/05/02 10:28:56;;;;;;;11.33;10.17;;;17.80;98.00;;;;;;5062982;28;20449;-44
2022/05/02 10:31:28;;;;;;;11.00;9.83;;;17.80;98.30;;;;;;5070003;28;20431;-43
2022/05/02 10:33:55;;;;;;;10.87;9.67;;;17.90;98.30;;;;;;5052811;28;20944;-44
2022/05/02 10:36:38;;;;;;;10.40;9.50;;;17.90;97.50;;;;;;5058575;28;20529;-43
2022/05/02 10:39:45;;;;;;;12.00;9.70;;;18.10;97.90;;;;;;5065259;28;20476;-44
2022/05/02 10:42:14;;;;;;;13.10;9.77;;;18.10;97.90;;;;;;5056763;28;20445;-44
2022/05/02 10:44:56;;;;;;;11.67;10.57;;;18.20;98.10;;;;;;5070010;28;20449;-44
2022/05/02 10:47:25;;;;;;;11.47;9.40;;;18.30;97.40;;;;;;5070121;28;20415;-43
2022/05/02 10:50:08;;;;;;;12.70;9.90;;;18.30;96.30;;;;;;5069455;28;20994;-44
2022/05/02 10:52:36;;;;;;;11.43;10.27;;;18.40;96.20;;;;;;5052157;28;20965;-44
2022/05/02 10:55:07;;;;;;;10.50;9.50;;;18.50;97.00;;;;;;5069607;28;20415;-44
2022/05/02 10:57:41;;;;;;;11.63;10.40;;;18.50;96.80;;;;;;5069953;28;20440;-43
2022/05/02 11:00:10;;;;;;;11.23;10.17;;;18.60;97.10;;;;;;5069046;28;20438;-44
2022/05/02 11:02:59;;;;;;;11.67;9.87;;;18.60;96.90;;;;;;5069807;28;20455;-44
2022/05/02 11:05:36;;;;;;;11.40;10.30;;;18.60;96.90;;;;;;5068022;28;20426;-44
2022/05/02 11:08:11;;;;;;;13.73;11.63;;;18.70;97.30;;;;;;5057673;28;20411;-44
2022/05/02 11:10:47;;;;;;;10.20;9.20;;;18.70;96.30;;;;;;5068729;28;20418;-44
2022/05/02 11:13:34;;;;;;;13.50;10.57;;;18.70;96.20;;;;;;5069676;28;20427;-44
2022/05/02 11:16:09;;;;;;;10.93;9.93;;;18.80;96.10;;;;;;5087289;28;20429;-44
2022/05/02 11:22:02;;;;;;;11.70;10.50;;;18.90;96.30;;;;;;5066143;28;20437;-44
2022/05/02 11:24:39;;;;;;;11.20;10.10;;;18.80;95.50;;;;;;5081487;28;20467;-44
2022/05/02 11:27:14;;;;;;;11.40;10.27;;;18.80;95.30;;;;;;5067821;28;20415;-44
2022/05/02 11:30:03;;;;;;;12.27;11.00;;;18.90;96.50;;;;;;5067520;28;20435;-44
2022/05/02 11:32:50;;;;;;;14.33;9.60;;;19.00;95.40;;;;;;5084465;28;20426;-44
2022/05/02 11:35:32;;;;;;;13.20;11.40;;;19.20;95.20;;;;;;5069543;28;20426;-44
2022/05/02 11:38:36;;;;;;;12.30;10.40;;;19.20;95.40;;;;;;5082497;28;20470;-44
2022/05/02 11:41:11;;;;;;;13.30;12.00;;;19.20;95.90;;;;;;5062738;28;20826;-44
2022/05/02 11:43:37;;;;;;;12.30;11.20;;;19.30;96.20;;;;;;5069006;28;20458;-44
2022/05/02 11:46:22;;;;;;;11.47;10.27;;;19.40;95.50;;;;;;5069242;28;20416;-44
2022/05/02 11:49:13;;;;;;;12.50;11.50;;;19.50;94.70;;;;;;5069127;28;20415;-44
2022/05/02 11:51:43;;;;;;;12.60;10.97;;;19.50;95.80;;;;;;5062539;28;20526;-44
2022/05/02 11:54:35;;;;;;;15.90;11.57;;;19.50;95.10;;;;;;5064432;28;20411;-44
2022/05/02 11:57:06;;;;;;;11.60;10.40;;;19.50;95.30;;;;;;5066210;28;20465;-44
2022/05/02 12:00:05;;;;;;;11.80;10.70;;;19.60;95.30;;;;;;5068853;28;20922;-44
2022/05/02 12:02:50;;;;;;;10.33;9.30;;;19.70;94.70;;;;;;5065194;28;21056;-44
2022/05/02 12:05:31;;;;;;;10.33;9.33;;;19.70;95.10;;;;;;5069274;28;20454;-44
2022/05/02 12:08:08;;;;;;;12.70;11.30;;;19.80;95.70;;;;;;5059184;28;20429;-44
2022/05/02 12:10:47;;;;;;;13.23;10.77;;;20.00;94.80;;;;;;5084064;28;20430;-44
2022/05/02 12:13:19;;;;;;;9.17;8.27;;;20.00;93.90;;;;;;5056909;28;20917;-44
2022/05/02 12:16:01;;;;;;;12.57;11.37;;;20.00;94.20;;;;;;5073520;28;20605;-44
2022/05/02 12:18:46;;;;;;;11.17;10.17;;;20.00;92.20;;;;;;5087472;28;20743;-44
2022/05/02 12:21:31;;;;;;;9.87;9.00;;;20.10;94.00;;;;;;5076856;28;20528;-44
2022/05/02 12:23:58;;;;;;;10.80;9.80;;;20.30;93.70;;;;;;5065157;28;20826;-44
2022/05/02 12:26:25;;;;;;;10.30;9.20;;;20.40;93.20;;;;;;5067656;28;20434;-44
2022/05/02 12:28:56;;;;;;;12.30;11.20;;;20.50;92.60;;;;;;5068745;28;20423;-44
2022/05/02 12:31:26;;;;;;;11.30;10.13;;;20.50;93.10;;;;;;5083342;28;20957;-44
2022/05/02 12:34:02;;;;;;;10.50;9.47;;;20.50;91.40;;;;;;5068621;28;20423;-44
2022/05/02 12:36:48;;;;;;;9.97;8.97;;;20.60;91.80;;;;;;5063038;28;20502;-44
2022/05/02 12:39:19;;;;;;;12.13;11.03;;;20.60;91.30;;;;;;5068192;28;20814;-44
2022/05/02 12:41:50;;;;;;;12.17;11.07;;;20.50;90.60;;;;;;5063674;28;20774;-44
2022/05/02 12:44:17;;;;;;;12.17;10.43;;;20.30;91.50;;;;;;5068691;28;20474;-44
2022/05/02 12:46:50;;;;;;;12.33;11.13;;;20.20;90.50;;;;;;5067152;28;20415;-44
2022/05/02 12:49:24;;;;;;;12.60;11.00;;;20.20;88.60;;;;;;5068687;28;20423;-44
2022/05/02 12:51:56;;;;;;;11.57;10.40;;;20.20;87.80;;;;;;5061295;28;20475;-44
2022/05/02 12:54:29;;;;;;;11.90;10.70;;;20.10;88.80;;;;;;5070563;28;21003;-44
2022/05/02 13:02:43;;;;;;;10.27;9.27;;;20.10;89.80;;;;;;5071674;28;21423;-43
2022/05/02 13:05:17;;;;;;;10.40;9.33;;;20.20;89.50;;;;;;5070980;28;20447;-44
2022/05/02 13:07:46;;;;;;;10.73;9.73;;;20.20;91.20;;;;;;5060986;28;20979;-44
2022/05/02 13:10:26;;;;;;;11.60;10.40;;;20.40;91.60;;;;;;5070019;28;20457;-44
2022/05/02 13:13:02;;;;;;;10.70;9.70;;;20.40;90.90;;;;;;5069880;28;20507;-44
2022/05/02 13:15:33;;;;;;;11.97;10.87;;;20.40;91.30;;;;;;5070061;28;20533;-44
2022/05/02 13:18:02;;;;;;;9.83;8.93;;;20.50;89.90;;;;;;5092202;28;20429;-44
2022/05/02 13:20:29;;;;;;;11.30;10.30;;;20.30;90.20;;;;;;5090526;28;20458;-44
2022/05/02 13:23:13;;;;;;;10.43;9.53;;;20.10;90.30;;;;;;5061938;28;20967;-44
2022/05/02 13:26:16;;;;;;;11.37;10.33;;;20.10;89.30;;;;;;5068635;28;20522;-44
2022/05/02 13:29:01;;;;;;;9.70;8.77;;;19.90;88.50;;;;;;5071493;28;20447;-44
2022/05/02 13:31:32;;;;;;;10.17;9.17;;;19.90;91.20;;;;;;5070947;28;20468;-44
2022/05/02 13:33:59;;;;;;;12.27;11.07;;;19.80;90.50;;;;;;5071373;28;20427;-44
2022/05/02 13:36:26;;;;;;;9.70;8.70;;;19.60;90.20;;;;;;5070058;28;20502;-44
2022/05/02 13:39:07;;;;;;;8.93;8.13;;;19.50;90.80;;;;;;5058275;28;20423;-44